sensor_id;sensor_type;location;lat;lon;timestamp;pressure;altitude;pressure_sealevel;temperature;humidity
24858;BME280;12935;50.782;6.074;2022-11-25T00:01:11;98970.91;;;9.99;100.00
24858;BME280;12935;50.782;6.074;2022-11-25T00:03:38;98951.03;;;9.98;100.00
24858;BME280;12935;50.782;6.074;2022-11-25T00:06:13;98958.00;;;10.06;100.00
24858;BME280;12935;50.782;6.074;2022-11-25T00:08:40;98968.44;;;10.15;100.00
24858;BME280;12935;50.782;6.074;2022-11-25T00:11:07;98955.59;;;10.12;100.00
24858;BME280;12935;50.782;6.074;2022-11-25T00:13:33;98957.16;;;10.09;100.00
24858;BME280;12935;50.782;6.074;2022-11-25T00:16:03;98941.91;;;10.15;100.00
24858;BME280;12935;50.782;6.074;2022-11-25T00:18:29;98939.59;;;10.14;100.00
24858;BME280;12935;50.782;6.074;2022-11-25T00:20:54;98933.72;;;10.15;100.00
24858;BME280;12935;50.782;6.074;2022-11-25T00:23:19;98959.88;;;10.13;100.00
24858;BME280;12935;50.782;6.074;2022-11-25T00:25:45;98927.16;;;10.09;100.00
24858;BME280;12935;50.782;6.074;2022-11-25T00:28:10;98922.09;;;10.08;100.00
24858;BME280;12935;50.782;6.074;2022-11-25T00:30:35;98934.13;;;10.14;100.00
24858;BME280;12935;50.782;6.074;2022-11-25T00:33:00;98923.59;;;10.16;100.00
24858;BME280;12935;50.782;6.074;2022-11-25T00:35:26;98926.31;;;10.16;100.00
24858;BME280;12935;50.782;6.074;2022-11-25T00:37:51;98924.78;;;10.18;100.00
24858;BME280;12935;50.782;6.074;2022-11-25T00:40:16;98919.31;;;10.15;100.00
24858;BME280;12935;50.782;6.074;2022-11-25T00:42:42;98918.50;;;10.22;100.00
24858;BME280;12935;50.782;6.074;2022-11-25T00:45:26;98909.06;;;10.26;100.00
24858;BME280;12935;50.782;6.074;2022-11-25T00:47:52;98908.31;;;10.26;100.00
24858;BME280;12935;50.782;6.074;2022-11-25T00:50:18;98904.03;;;10.25;100.00
24858;BME280;12935;50.782;6.074;2022-11-25T00:52:43;98905.53;;;10.29;100.00
24858;BME280;12935;50.782;6.074;2022-11-25T00:55:08;98904.78;;;10.25;100.00
24858;BME280;12935;50.782;6.074;2022-11-25T00:57:34;98904.78;;;10.25;100.00
24858;BME280;12935;50.782;6.074;2022-11-25T00:59:59;98906.03;;;10.21;100.00
24858;BME280;12935;50.782;6.074;2022-11-25T01:02:24;98909.84;;;10.27;100.00
24858;BME280;12935;50.782;6.074;2022-11-25T01:04:50;98906.31;;;10.30;100.00
24858;BME280;12935;50.782;6.074;2022-11-25T01:07:15;98904.75;;;10.29;100.00
24858;BME280;12935;50.782;6.074;2022-11-25T01:09:41;98905.09;;;10.34;100.00
24858;BME280;12935;50.782;6.074;2022-11-25T01:12:06;98907.97;;;10.16;100.00
24858;BME280;12935;50.782;6.074;2022-11-25T01:14:31;98907.13;;;10.27;100.00
24858;BME280;12935;50.782;6.074;2022-11-25T01:16:57;98902.81;;;10.29;100.00
24858;BME280;12935;50.782;6.074;2022-11-25T01:19:23;98896.97;;;10.27;100.00
24858;BME280;12935;50.782;6.074;2022-11-25T01:21:48;98908.22;;;10.36;100.00
24858;BME280;12935;50.782;6.074;2022-11-25T01:24:14;98912.09;;;10.39;100.00
24858;BME280;12935;50.782;6.074;2022-11-25T01:26:40;98895.75;;;10.35;100.00
24858;BME280;12935;50.782;6.074;2022-11-25T01:29:13;98901.56;;;10.37;100.00
24858;BME280;12935;50.782;6.074;2022-11-25T01:31:39;98910.22;;;10.29;100.00
24858;BME280;12935;50.782;6.074;2022-11-25T01:34:12;98903.94;;;10.35;100.00
24858;BME280;12935;50.782;6.074;2022-11-25T01:36:38;98908.94;;;10.40;100.00
24858;BME280;12935;50.782;6.074;2022-11-25T01:39:04;98907.81;;;10.38;100.00
24858;BME280;12935;50.782;6.074;2022-11-25T01:41:31;98893.81;;;10.32;100.00
24858;BME280;12935;50.782;6.074;2022-11-25T01:49:45;98906.72;;;10.28;100.00
24858;BME280;12935;50.782;6.074;2022-11-25T01:54:46;98908.69;;;10.28;100.00
24858;BME280;12935;50.782;6.074;2022-11-25T01:57:23;98916.50;;;10.26;100.00
24858;BME280;12935;50.782;6.074;2022-11-25T01:59:52;98906.81;;;10.21;100.00
24858;BME280;12935;50.782;6.074;2022-11-25T02:02:20;98923.19;;;10.21;100.00
24858;BME280;12935;50.782;6.074;2022-11-25T02:04:46;98929.88;;;10.09;100.00
24858;BME280;12935;50.782;6.074;2022-11-25T02:07:25;98932.56;;;10.16;100.00
24858;BME280;12935;50.782;6.074;2022-11-25T02:09:53;98927.13;;;10.13;100.00
24858;BME280;12935;50.782;6.074;2022-11-25T02:12:20;98920.22;;;10.01;100.00
24858;BME280;12935;50.782;6.074;2022-11-25T02:14:47;98920.47;;;10.14;100.00
24858;BME280;12935;50.782;6.074;2022-11-25T02:17:14;98917.34;;;10.15;100.00
24858;BME280;12935;50.782;6.074;2022-11-25T02:22:59;98925.53;;;10.19;100.00
24858;BME280;12935;50.782;6.074;2022-11-25T02:25:35;98927.47;;;10.22;100.00
24858;BME280;12935;50.782;6.074;2022-11-25T02:28:14;98928.66;;;10.17;100.00
24858;BME280;12935;50.782;6.074;2022-11-25T02:30:40;98932.59;;;10.09;100.00
24858;BME280;12935;50.782;6.074;2022-11-25T02:33:06;98950.94;;;10.09;100.00
24858;BME280;12935;50.782;6.074;2022-11-25T02:35:34;98951.00;;;10.05;100.00
24858;BME280;12935;50.782;6.074;2022-11-25T02:38:04;98942.31;;;10.14;100.00
24858;BME280;12935;50.782;6.074;2022-11-25T02:40:31;98946.72;;;10.01;100.00
24858;BME280;12935;50.782;6.074;2022-11-25T02:42:59;98954.44;;;10.09;100.00
24858;BME280;12935;50.782;6.074;2022-11-25T02:45:40;98946.97;;;10.17;100.00
24858;BME280;12935;50.782;6.074;2022-11-25T02:48:07;98947.38;;;10.19;100.00
24858;BME280;12935;50.782;6.074;2022-11-25T02:50:32;98949.34;;;10.18;100.00
24858;BME280;12935;50.782;6.074;2022-11-25T02:52:58;98958.31;;;10.19;100.00
24858;BME280;12935;50.782;6.074;2022-11-25T02:55:23;98955.94;;;10.17;100.00
24858;BME280;12935;50.782;6.074;2022-11-25T02:57:48;98950.94;;;10.09;100.00
24858;BME280;12935;50.782;6.074;2022-11-25T03:00:14;98951.72;;;10.09;100.00
24858;BME280;12935;50.782;6.074;2022-11-25T03:02:39;98955.31;;;9.99;100.00
24858;BME280;12935;50.782;6.074;2022-11-25T03:05:05;98961.97;;;9.95;100.00
24858;BME280;12935;50.782;6.074;2022-11-25T03:07:30;98963.50;;;9.99;100.00
24858;BME280;12935;50.782;6.074;2022-11-25T03:09:55;98961.53;;;10.03;100.00
24858;BME280;12935;50.782;6.074;2022-11-25T03:12:21;98970.88;;;10.06;100.00
24858;BME280;12935;50.782;6.074;2022-11-25T03:14:47;98975.19;;;10.03;100.00
24858;BME280;12935;50.782;6.074;2022-11-25T03:17:13;98981.78;;;10.06;100.00
24858;BME280;12935;50.782;6.074;2022-11-25T03:19:38;98989.88;;;10.16;100.00
24858;BME280;12935;50.782;6.074;2022-11-25T03:22:04;98992.63;;;10.16;100.00
24858;BME280;12935;50.782;6.074;2022-11-25T03:24:29;98993.78;;;10.15;100.00
24858;BME280;12935;50.782;6.074;2022-11-25T03:26:55;99001.28;;;10.04;100.00
24858;BME280;12935;50.782;6.074;2022-11-25T03:29:20;99003.56;;;10.09;100.00
24858;BME280;12935;50.782;6.074;2022-11-25T03:31:45;99005.88;;;10.14;100.00
24858;BME280;12935;50.782;6.074;2022-11-25T03:34:11;99007.16;;;10.03;100.00
24858;BME280;12935;50.782;6.074;2022-11-25T03:36:37;99003.25;;;10.04;100.00
24858;BME280;12935;50.782;6.074;2022-11-25T03:39:03;99003.28;;;9.97;100.00
24858;BME280;12935;50.782;6.074;2022-11-25T03:41:28;99009.88;;;10.03;100.00
24858;BME280;12935;50.782;6.074;2022-11-25T03:43:54;99017.41;;;9.84;100.00
24858;BME280;12935;50.782;6.074;2022-11-25T03:46:19;99006.97;;;9.72;100.00
24858;BME280;12935;50.782;6.074;2022-11-25T03:48:44;98996.47;;;9.67;100.00
24858;BME280;12935;50.782;6.074;2022-11-25T03:51:10;98982.06;;;9.67;100.00
24858;BME280;12935;50.782;6.074;2022-11-25T03:53:35;98982.03;;;9.70;100.00
24858;BME280;12935;50.782;6.074;2022-11-25T03:56:00;98984.00;;;9.66;100.00
24858;BME280;12935;50.782;6.074;2022-11-25T03:58:26;98992.19;;;9.66;100.00
24858;BME280;12935;50.782;6.074;2022-11-25T04:00:51;98999.63;;;9.62;100.00
24858;BME280;12935;50.782;6.074;2022-11-25T04:03:16;98984.47;;;9.54;100.00
24858;BME280;12935;50.782;6.074;2022-11-25T04:05:42;98975.50;;;9.57;100.00
24858;BME280;12935;50.782;6.074;2022-11-25T04:08:07;98975.06;;;9.62;100.00
24858;BME280;12935;50.782;6.074;2022-11-25T04:10:32;98988.84;;;9.41;100.00
24858;BME280;12935;50.782;6.074;2022-11-25T04:12:57;98996.66;;;9.39;100.00
24858;BME280;12935;50.782;6.074;2022-11-25T04:15:23;98995.88;;;9.35;100.00
24858;BME280;12935;50.782;6.074;2022-11-25T04:17:48;99006.31;;;9.47;100.00
24858;BME280;12935;50.782;6.074;2022-11-25T04:20:14;99005.22;;;9.34;100.00
24858;BME280;12935;50.782;6.074;2022-11-25T04:22:39;99019.69;;;9.24;100.00
24858;BME280;12935;50.782;6.074;2022-11-25T04:25:05;99028.66;;;9.21;100.00
24858;BME280;12935;50.782;6.074;2022-11-25T04:27:31;99024.78;;;9.22;100.00
24858;BME280;12935;50.782;6.074;2022-11-25T04:29:56;99025.53;;;9.22;100.00
24858;BME280;12935;50.782;6.074;2022-11-25T04:32:22;99013.88;;;9.18;100.00
24858;BME280;12935;50.782;6.074;2022-11-25T04:34:47;99022.44;;;9.24;100.00
24858;BME280;12935;50.782;6.074;2022-11-25T04:37:12;99018.53;;;9.18;100.00
24858;BME280;12935;50.782;6.074;2022-11-25T04:39:38;99018.94;;;9.16;100.00
24858;BME280;12935;50.782;6.074;2022-11-25T04:42:03;99018.16;;;9.23;100.00
24858;BME280;12935;50.782;6.074;2022-11-25T04:44:47;99031.00;;;9.22;100.00
24858;BME280;12935;50.782;6.074;2022-11-25T04:47:12;99025.94;;;9.24;100.00
24858;BME280;12935;50.782;6.074;2022-11-25T04:49:37;99015.41;;;9.26;100.00
24858;BME280;12935;50.782;6.074;2022-11-25T04:52:03;99022.00;;;9.29;100.00
24858;BME280;12935;50.782;6.074;2022-11-25T04:54:28;99027.88;;;9.20;100.00
24858;BME280;12935;50.782;6.074;2022-11-25T04:56:53;99040.72;;;9.23;100.00
24858;BME280;12935;50.782;6.074;2022-11-25T04:59:19;99035.66;;;9.25;100.00
24858;BME280;12935;50.782;6.074;2022-11-25T05:02:03;99043.41;;;9.30;100.00
24858;BME280;12935;50.782;6.074;2022-11-25T05:04:28;99048.13;;;9.23;100.00
24858;BME280;12935;50.782;6.074;2022-11-25T05:06:53;99047.75;;;9.21;100.00
24858;BME280;12935;50.782;6.074;2022-11-25T05:09:19;99061.75;;;9.23;100.00
24858;BME280;12935;50.782;6.074;2022-11-25T05:11:44;99067.66;;;9.03;100.00
24858;BME280;12935;50.782;6.074;2022-11-25T05:14:09;99069.22;;;9.01;100.00
24858;BME280;12935;50.782;6.074;2022-11-25T05:16:34;99071.53;;;9.09;100.00
24858;BME280;12935;50.782;6.074;2022-11-25T05:19:00;99071.94;;;9.11;100.00
24858;BME280;12935;50.782;6.074;2022-11-25T05:21:25;99063.75;;;9.08;100.00
24858;BME280;12935;50.782;6.074;2022-11-25T05:23:50;99078.16;;;9.12;100.00
24858;BME280;12935;50.782;6.074;2022-11-25T05:26:16;99074.28;;;8.99;100.00
24858;BME280;12935;50.782;6.074;2022-11-25T05:28:41;99074.31;;;8.95;100.00
24858;BME280;12935;50.782;6.074;2022-11-25T05:31:06;99077.00;;;8.99;100.00
24858;BME280;12935;50.782;6.074;2022-11-25T05:33:31;99085.16;;;9.09;100.00
24858;BME280;12935;50.782;6.074;2022-11-25T05:35:59;99085.94;;;9.03;100.00
24858;BME280;12935;50.782;6.074;2022-11-25T05:38:25;99086.72;;;9.03;100.00
24858;BME280;12935;50.782;6.074;2022-11-25T05:40:51;99094.50;;;9.01;100.00
24858;BME280;12935;50.782;6.074;2022-11-25T05:43:16;99091.78;;;9.01;100.00
24858;BME280;12935;50.782;6.074;2022-11-25T05:45:42;99102.69;;;9.01;100.00
24858;BME280;12935;50.782;6.074;2022-11-25T05:48:07;99098.81;;;8.99;100.00
24858;BME280;12935;50.782;6.074;2022-11-25T05:50:32;99104.25;;;8.99;100.00
24858;BME280;12935;50.782;6.074;2022-11-25T05:52:57;99111.66;;;9.05;100.00
24858;BME280;12935;50.782;6.074;2022-11-25T05:55:23;99116.69;;;9.07;100.00
24858;BME280;12935;50.782;6.074;2022-11-25T05:57:48;99120.56;;;9.13;100.00
24858;BME280;12935;50.782;6.074;2022-11-25T06:00:13;99126.03;;;9.09;100.00
24858;BME280;12935;50.782;6.074;2022-11-25T06:02:39;99124.50;;;8.91;100.00
24858;BME280;12935;50.782;6.074;2022-11-25T06:05:04;99135.44;;;8.80;100.00
24858;BME280;12935;50.782;6.074;2022-11-25T06:07:30;99136.59;;;8.65;100.00
24858;BME280;12935;50.782;6.074;2022-11-25T06:09:55;99149.41;;;8.82;100.00
24858;BME280;12935;50.782;6.074;2022-11-25T06:12:20;99145.16;;;8.92;100.00
24858;BME280;12935;50.782;6.074;2022-11-25T06:14:46;99141.63;;;8.98;100.00
24858;BME280;12935;50.782;6.074;2022-11-25T06:17:11;99134.25;;;8.92;100.00
24858;BME280;12935;50.782;6.074;2022-11-25T06:19:36;99131.53;;;8.92;100.00
24858;BME280;12935;50.782;6.074;2022-11-25T06:22:02;99138.16;;;8.80;100.00
24858;BME280;12935;50.782;6.074;2022-11-25T06:24:27;99142.03;;;8.90;100.00
24858;BME280;12935;50.782;6.074;2022-11-25T06:26:52;99150.97;;;8.87;100.00
24858;BME280;12935;50.782;6.074;2022-11-25T06:29:17;99149.81;;;8.84;100.00
24858;BME280;12935;50.782;6.074;2022-11-25T06:31:43;99145.53;;;8.72;100.00
24858;BME280;12935;50.782;6.074;2022-11-25T06:34:08;99161.13;;;8.65;100.00
24858;BME280;12935;50.782;6.074;2022-11-25T06:36:33;99158.38;;;8.68;100.00
24858;BME280;12935;50.782;6.074;2022-11-25T06:38:59;99155.66;;;8.72;100.00
24858;BME280;12935;50.782;6.074;2022-11-25T06:41:24;99152.94;;;8.79;100.00
24858;BME280;12935;50.782;6.074;2022-11-25T06:43:49;99152.53;;;8.88;100.00
24858;BME280;12935;50.782;6.074;2022-11-25T06:46:16;99163.81;;;8.86;100.00
24858;BME280;12935;50.782;6.074;2022-11-25T06:48:41;99163.81;;;8.72;100.00
24858;BME280;12935;50.782;6.074;2022-11-25T06:51:09;99173.53;;;8.69;100.00
24858;BME280;12935;50.782;6.074;2022-11-25T06:53:35;99165.78;;;8.71;100.00
24858;BME280;12935;50.782;6.074;2022-11-25T06:56:10;99175.50;;;8.79;100.00
24858;BME280;12935;50.782;6.074;2022-11-25T06:58:36;99166.53;;;8.86;100.00
24858;BME280;12935;50.782;6.074;2022-11-25T07:01:03;99173.94;;;8.86;100.00
24858;BME280;12935;50.782;6.074;2022-11-25T07:03:29;99184.84;;;8.86;100.00
24858;BME280;12935;50.782;6.074;2022-11-25T07:05:56;99182.88;;;8.83;100.00
24858;BME280;12935;50.782;6.074;2022-11-25T07:08:22;99194.59;;;8.79;100.00
24858;BME280;12935;50.782;6.074;2022-11-25T07:10:49;99201.97;;;8.75;100.00
24858;BME280;12935;50.782;6.074;2022-11-25T07:13:14;99199.66;;;8.81;100.00
24858;BME280;12935;50.782;6.074;2022-11-25T07:15:39;99206.25;;;8.76;100.00
24858;BME280;12935;50.782;6.074;2022-11-25T07:18:04;99208.19;;;8.65;100.00
24858;BME280;12935;50.782;6.074;2022-11-25T07:20:30;99201.19;;;8.64;100.00
24858;BME280;12935;50.782;6.074;2022-11-25T07:22:56;99218.31;;;8.72;100.00
24858;BME280;12935;50.782;6.074;2022-11-25T07:25:22;99214.81;;;8.75;100.00
24858;BME280;12935;50.782;6.074;2022-11-25T07:27:47;99221.81;;;8.79;100.00
24858;BME280;12935;50.782;6.074;2022-11-25T07:30:12;99227.25;;;8.76;100.00
24858;BME280;12935;50.782;6.074;2022-11-25T07:32:38;99228.41;;;8.68;100.00
24858;BME280;12935;50.782;6.074;2022-11-25T07:35:03;99231.53;;;8.59;100.00
24858;BME280;12935;50.782;6.074;2022-11-25T07:37:29;99228.41;;;8.57;100.00
24858;BME280;12935;50.782;6.074;2022-11-25T07:39:54;99224.13;;;8.49;100.00
24858;BME280;12935;50.782;6.074;2022-11-25T07:42:20;99236.56;;;8.54;100.00
24858;BME280;12935;50.782;6.074;2022-11-25T07:44:45;99240.06;;;8.54;100.00
24858;BME280;12935;50.782;6.074;2022-11-25T07:47:10;99237.34;;;8.47;100.00
24858;BME280;12935;50.782;6.074;2022-11-25T07:49:35;99250.94;;;8.54;100.00
24858;BME280;12935;50.782;6.074;2022-11-25T07:52:01;99250.94;;;8.51;100.00
24858;BME280;12935;50.782;6.074;2022-11-25T07:54:29;99266.91;;;8.56;100.00
24858;BME280;12935;50.782;6.074;2022-11-25T07:56:55;99259.53;;;8.56;100.00
24858;BME280;12935;50.782;6.074;2022-11-25T07:59:21;99252.91;;;8.61;100.00
24858;BME280;12935;50.782;6.074;2022-11-25T08:01:51;99270.81;;;8.62;100.00
24858;BME280;12935;50.782;6.074;2022-11-25T08:04:17;99264.22;;;8.70;100.00
24858;BME280;12935;50.782;6.074;2022-11-25T08:06:44;99263.03;;;8.60;100.00
24858;BME280;12935;50.782;6.074;2022-11-25T08:09:12;99271.56;;;8.55;100.00
24858;BME280;12935;50.782;6.074;2022-11-25T08:11:38;99279.38;;;8.60;100.00
24858;BME280;12935;50.782;6.074;2022-11-25T08:14:04;99282.44;;;8.52;100.00
24858;BME280;12935;50.782;6.074;2022-11-25T08:16:29;99282.47;;;8.55;100.00
24858;BME280;12935;50.782;6.074;2022-11-25T08:18:57;99289.88;;;8.69;100.00
24858;BME280;12935;50.782;6.074;2022-11-25T08:21:23;99290.31;;;8.85;100.00
24858;BME280;12935;50.782;6.074;2022-11-25T08:23:49;99302.78;;;8.86;100.00
24858;BME280;12935;50.782;6.074;2022-11-25T08:26:31;99304.72;;;8.86;100.00
24858;BME280;12935;50.782;6.074;2022-11-25T08:28:59;99307.84;;;8.98;100.00
24858;BME280;12935;50.782;6.074;2022-11-25T08:31:30;99319.53;;;9.02;100.00
24858;BME280;12935;50.782;6.074;2022-11-25T08:33:57;99321.47;;;8.88;100.00
24858;BME280;12935;50.782;6.074;2022-11-25T08:36:23;99324.56;;;8.83;100.00
24858;BME280;12935;50.782;6.074;2022-11-25T08:38:52;99324.50;;;8.58;100.00
24858;BME280;12935;50.782;6.074;2022-11-25T08:41:29;99336.19;;;8.62;100.00
24858;BME280;12935;50.782;6.074;2022-11-25T08:43:55;99330.41;;;8.88;100.00
24858;BME280;12935;50.782;6.074;2022-11-25T08:46:23;99333.94;;;8.96;100.00
24858;BME280;12935;50.782;6.074;2022-11-25T08:48:49;99340.94;;;9.04;100.00
24858;BME280;12935;50.782;6.074;2022-11-25T08:51:18;99349.16;;;9.22;100.00
24858;BME280;12935;50.782;6.074;2022-11-25T08:53:44;99346.03;;;9.20;100.00
24858;BME280;12935;50.782;6.074;2022-11-25T08:56:10;99342.16;;;9.35;100.00
24858;BME280;12935;50.782;6.074;2022-11-25T08:58:36;99352.66;;;9.29;100.00
24858;BME280;12935;50.782;6.074;2022-11-25T09:01:04;99362.41;;;9.27;100.00
24858;BME280;12935;50.782;6.074;2022-11-25T09:03:43;99359.69;;;9.23;100.00
24858;BME280;12935;50.782;6.074;2022-11-25T09:06:10;99367.84;;;9.23;100.00
24858;BME280;12935;50.782;6.074;2022-11-25T09:08:37;99356.16;;;9.23;100.00
24858;BME280;12935;50.782;6.074;2022-11-25T09:11:03;99360.06;;;9.32;100.00
24858;BME280;12935;50.782;6.074;2022-11-25T09:13:28;99370.19;;;9.46;100.00
24858;BME280;12935;50.782;6.074;2022-11-25T09:15:54;99369.06;;;9.54;100.00
24858;BME280;12935;50.782;6.074;2022-11-25T09:18:20;99369.81;;;9.51;100.00
24858;BME280;12935;50.782;6.074;2022-11-25T09:20:50;99379.94;;;9.50;100.00
24858;BME280;12935;50.782;6.074;2022-11-25T09:23:15;99373.34;;;9.55;100.00
24858;BME280;12935;50.782;6.074;2022-11-25T09:25:41;99379.97;;;9.68;100.00
24858;BME280;12935;50.782;6.074;2022-11-25T09:28:06;99383.06;;;9.67;100.00
24858;BME280;12935;50.782;6.074;2022-11-25T09:30:31;99384.25;;;9.55;100.00
24858;BME280;12935;50.782;6.074;2022-11-25T09:32:57;99385.03;;;9.66;100.00
24858;BME280;12935;50.782;6.074;2022-11-25T09:35:23;99379.97;;;9.75;100.00
24858;BME280;12935;50.782;6.074;2022-11-25T09:37:49;99392.81;;;9.54;100.00
24858;BME280;12935;50.782;6.074;2022-11-25T09:40:31;99405.69;;;9.74;100.00
24858;BME280;12935;50.782;6.074;2022-11-25T09:43:10;99401.38;;;9.95;100.00
24858;BME280;12935;50.782;6.074;2022-11-25T09:46:17;99418.91;;;10.11;100.00
24858;BME280;12935;50.782;6.074;2022-11-25T09:52:29;99414.63;;;10.10;100.00
24858;BME280;12935;50.782;6.074;2022-11-25T09:55:06;99417.38;;;9.96;100.00
24858;BME280;12935;50.782;6.074;2022-11-25T09:57:50;99422.03;;;10.10;100.00
24858;BME280;12935;50.782;6.074;2022-11-25T10:00:20;99417.38;;;10.07;100.00
24858;BME280;12935;50.782;6.074;2022-11-25T10:05:31;99428.69;;;10.05;100.00
24858;BME280;12935;50.782;6.074;2022-11-25T10:08:15;99425.94;;;9.95;100.00
24858;BME280;12935;50.782;6.074;2022-11-25T10:10:52;99436.06;;;9.94;100.00
24858;BME280;12935;50.782;6.074;2022-11-25T10:15:49;99440.38;;;9.95;100.00
24858;BME280;12935;50.782;6.074;2022-11-25T10:18:20;99443.13;;;10.20;100.00
24858;BME280;12935;50.782;6.074;2022-11-25T10:20:48;99445.06;;;10.19;100.00
24858;BME280;12935;50.782;6.074;2022-11-25T10:23:22;99448.56;;;10.24;100.00
24858;BME280;12935;50.782;6.074;2022-11-25T10:25:52;99448.53;;;10.09;100.00
24858;BME280;12935;50.782;6.074;2022-11-25T10:28:40;99463.38;;;10.15;100.00
24858;BME280;12935;50.782;6.074;2022-11-25T10:31:16;99457.56;;;10.21;100.00
24858;BME280;12935;50.782;6.074;2022-11-25T10:33:51;99464.56;;;10.22;100.00
24858;BME280;12935;50.782;6.074;2022-11-25T10:36:20;99473.50;;;10.47;100.00
24858;BME280;12935;50.782;6.074;2022-11-25T10:41:47;99477.44;;;10.35;100.00
24858;BME280;12935;50.782;6.074;2022-11-25T10:52:36;99480.56;;;10.34;100.00
24858;BME280;12935;50.782;6.074;2022-11-25T10:57:38;99497.69;;;10.41;100.00
24858;BME280;12935;50.782;6.074;2022-11-25T11:00:07;99500.44;;;10.34;100.00
24858;BME280;12935;50.782;6.074;2022-11-25T11:02:47;99502.00;;;10.32;100.00
24858;BME280;12935;50.782;6.074;2022-11-25T11:07:41;99497.31;;;10.25;100.00
24858;BME280;12935;50.782;6.074;2022-11-25T11:13:17;99500.41;;;10.55;100.00
24858;BME280;12935;50.782;6.074;2022-11-25T11:15:45;99491.03;;;10.67;100.00
24858;BME280;12935;50.782;6.074;2022-11-25T11:18:24;99488.97;;;11.00;100.00
24858;BME280;12935;50.782;6.074;2022-11-25T11:20:56;99493.53;;;11.28;100.00
24858;BME280;12935;50.782;6.074;2022-11-25T11:23:22;99511.53;;;11.29;100.00
24858;BME280;12935;50.782;6.074;2022-11-25T11:31:17;99522.78;;;11.45;100.00
24858;BME280;12935;50.782;6.074;2022-11-25T11:47:06;99545.94;;;12.47;100.00
24858;BME280;12935;50.782;6.074;2022-11-25T11:50:00;99549.84;;;12.50;100.00
24858;BME280;12935;50.782;6.074;2022-11-25T11:58:21;99538.44;;;11.34;100.00
24858;BME280;12935;50.782;6.074;2022-11-25T12:01:06;99537.56;;;11.54;100.00
24858;BME280;12935;50.782;6.074;2022-11-25T12:03:43;99547.75;;;11.50;100.00
24858;BME280;12935;50.782;6.074;2022-11-25T12:06:13;99539.59;;;11.43;100.00
24858;BME280;12935;50.782;6.074;2022-11-25T12:08:47;99549.81;;;11.29;100.00
24858;BME280;12935;50.782;6.074;2022-11-25T12:11:18;99551.19;;;11.76;100.00
24858;BME280;12935;50.782;6.074;2022-11-25T12:13:47;99540.31;;;12.17;100.00
24858;BME280;12935;50.782;6.074;2022-11-25T12:16:39;99558.38;;;12.11;100.00
24858;BME280;12935;50.782;6.074;2022-11-25T12:22:02;99567.59;;;11.72;100.00
24858;BME280;12935;50.782;6.074;2022-11-25T12:27:32;99574.88;;;11.97;100.00
24858;BME280;12935;50.782;6.074;2022-11-25T12:30:03;99581.59;;;11.88;100.00
24858;BME280;12935;50.782;6.074;2022-11-25T12:32:40;99579.06;;;12.15;100.00
24858;BME280;12935;50.782;6.074;2022-11-25T12:35:46;99586.63;;;11.97;100.00
24858;BME280;12935;50.782;6.074;2022-11-25T12:41:11;99588.16;;;12.02;100.00
24858;BME280;12935;50.782;6.074;2022-11-25T12:43:48;99591.09;;;12.28;100.00
24858;BME280;12935;50.782;6.074;2022-11-25T12:46:21;99594.41;;;12.06;100.00
24858;BME280;12935;50.782;6.074;2022-11-25T12:48:48;99603.84;;;11.98;100.00
24858;BME280;12935;50.782;6.074;2022-11-25T12:51:30;99597.63;;;11.90;100.00
24858;BME280;12935;50.782;6.074;2022-11-25T13:08:21;99608.75;;;11.47;100.00
24858;BME280;12935;50.782;6.074;2022-11-25T13:11:04;99613.81;;;11.52;100.00
24858;BME280;12935;50.782;6.074;2022-11-25T13:13:48;99613.13;;;11.31;100.00
24858;BME280;12935;50.782;6.074;2022-11-25T13:16:17;99627.94;;;11.37;100.00
24858;BME280;12935;50.782;6.074;2022-11-25T13:18:44;99621.78;;;11.01;100.00
24858;BME280;12935;50.782;6.074;2022-11-25T13:21:12;99624.88;;;11.17;100.00
24858;BME280;12935;50.782;6.074;2022-11-25T13:23:51;99621.38;;;11.13;100.00
24858;BME280;12935;50.782;6.074;2022-11-25T13:28:57;99631.91;;;11.14;100.00
24858;BME280;12935;50.782;6.074;2022-11-25T13:31:23;99646.38;;;11.15;100.00
24858;BME280;12935;50.782;6.074;2022-11-25T13:34:02;99643.63;;;11.08;100.00
24858;BME280;12935;50.782;6.074;2022-11-25T13:42:44;99664.66;;;11.36;100.00
24858;BME280;12935;50.782;6.074;2022-11-25T13:45:25;99648.31;;;11.07;100.00
24858;BME280;12935;50.782;6.074;2022-11-25T13:47:52;99663.97;;;10.96;100.00
24858;BME280;12935;50.782;6.074;2022-11-25T13:50:23;99658.88;;;10.87;100.00
24858;BME280;12935;50.782;6.074;2022-11-25T13:53:19;99672.16;;;10.89;100.00
24858;BME280;12935;50.782;6.074;2022-11-25T13:55:46;99667.47;;;10.58;100.00
24858;BME280;12935;50.782;6.074;2022-11-25T14:06:21;99681.50;;;10.56;100.00
24858;BME280;12935;50.782;6.074;2022-11-25T14:09:02;99686.59;;;10.50;100.00
24858;BME280;12935;50.782;6.074;2022-11-25T14:11:41;99677.19;;;10.41;100.00
24858;BME280;12935;50.782;6.074;2022-11-25T14:14:41;99680.34;;;10.75;100.00
24858;BME280;12935;50.782;6.074;2022-11-25T14:20:02;99690.91;;;10.87;100.00
24858;BME280;12935;50.782;6.074;2022-11-25T14:25:13;99695.59;;;10.94;100.00
24858;BME280;12935;50.782;6.074;2022-11-25T14:27:45;99687.75;;;10.71;100.00
24858;BME280;12935;50.782;6.074;2022-11-25T14:30:12;99693.25;;;10.64;100.00
24858;BME280;12935;50.782;6.074;2022-11-25T14:32:43;99694.03;;;10.68;100.00
24858;BME280;12935;50.782;6.074;2022-11-25T14:35:19;99697.94;;;10.70;100.00
24858;BME280;12935;50.782;6.074;2022-11-25T14:37:50;99698.34;;;10.69;100.00
24858;BME280;12935;50.782;6.074;2022-11-25T14:40:23;99709.28;;;10.83;100.00
24858;BME280;12935;50.782;6.074;2022-11-25T14:42:53;99706.91;;;10.92;100.00
24858;BME280;12935;50.782;6.074;2022-11-25T14:45:27;99717.44;;;10.72;100.00
24858;BME280;12935;50.782;6.074;2022-11-25T14:47:54;99727.59;;;10.75;100.00
24858;BME280;12935;50.782;6.074;2022-11-25T14:50:19;99722.94;;;10.69;100.00
24858;BME280;12935;50.782;6.074;2022-11-25T14:52:45;99732.66;;;10.52;100.00